Bookmark and Share
Track history (hours):
 

Sealyon

Last reported at 2014-Apr-15 05:32 UTC. Time now 2014-Apr-20 16:03 UTC.
Position N 18°15' W 063°29'.

Length 62 m; draft 3.6 m.

Type: Pleasure craft. MMSI: 235072538.

NotesDate/timePositionNaut miles runAvg speedWind from/ knotsBaromVisibWave heightAir tempDewpointWater temp
2014-Apr-15 05:32N 18°15' W 063°29'2210.8
2014-Apr-15 03:32N 18°10' W 063°07'0 0.0
2014-Apr-15 02:32N 18°10' W 063°07'6 0.6
2014-Apr-14 16:30N 18°04' W 063°05'0 0.0
2014-Apr-14 11:33N 18°04' W 063°05'0 0.0
2014-Apr-14 10:31N 18°04' W 063°05'0 0.0
2014-Apr-14 06:33N 18°04' W 063°05'0 0.0
2014-Apr-13 22:30N 18°04' W 063°05'1 1.2
2014-Apr-13 21:30N 18°05' W 063°06'3 2.0
2014-Apr-13 20:08N 18°03' W 063°08'0 0.0
2014-Apr-13 17:28N 18°03' W 063°09'0 0.0
2014-Apr-13 16:14N 18°03' W 063°09'0 0.0
2014-Apr-13 15:27N 18°03' W 063°09'0 0.0
2014-Apr-13 14:24N 18°03' W 063°08'0 0.0
2014-Apr-13 13:31N 18°03' W 063°09'0 0.0
2014-Apr-13 12:17N 18°03' W 063°09'0 0.0
2014-Apr-13 11:29N 18°03' W 063°09'6 5.0
2014-Apr-13 10:14N 18°09' W 063°11'2 0.1
2014-Apr-12 14:21N 18°11' W 063°10'3 1.5
2014-Apr-12 12:14N 18°10' W 063°07'0 0.0
2014-Apr-12 11:11N 18°10' W 063°07'0 0.0
2014-Apr-12 10:33N 18°10' W 063°07'0 0.0
2014-Apr-12 04:22N 18°10' W 063°07'  
2014-Apr-09 20:21N 18°05' W 063°05'1 0.7
2014-Apr-09 19:27N 18°04' W 063°05'0 0.0
2014-Apr-09 18:04N 18°04' W 063°05'0 0.0
2014-Apr-09 16:12N 18°04' W 063°05'0 0.0
2014-Apr-09 15:21N 18°04' W 063°05'0 0.0
2014-Apr-09 14:31N 18°04' W 063°05'0 0.0
2014-Apr-09 13:31N 18°04' W 063°05'0 0.0
2014-Apr-09 12:32N 18°04' W 063°05'0 0.0
2014-Apr-09 11:30N 18°04' W 063°05'0 0.0
2014-Apr-09 10:27N 18°04' W 063°05'0 0.0
2014-Apr-09 09:25N 18°04' W 063°05'0 0.0
2014-Apr-09 08:26N 18°04' W 063°05'0 0.0
2014-Apr-09 07:23N 18°04' W 063°05'0 0.0
2014-Apr-09 06:30N 18°04' W 063°05'0 0.0
2014-Apr-09 05:28N 18°04' W 063°05'0 0.0
2014-Apr-09 04:29N 18°04' W 063°05'0 0.0
2014-Apr-09 02:15N 18°04' W 063°05'0 0.0
2014-Apr-09 01:34N 18°04' W 063°05'0 0.0
2014-Apr-09 00:31N 18°04' W 063°05'0 0.0
2014-Apr-08 23:32N 18°04' W 063°05'0 0.0
2014-Apr-08 22:21N 18°04' W 063°05'0 0.0
2014-Apr-08 20:04N 18°04' W 063°05'0 0.0
2014-Apr-08 19:23N 18°04' W 063°05'0 0.0
2014-Apr-08 18:11N 18°04' W 063°05'0 0.0
2014-Apr-08 17:33N 18°04' W 063°05'0 0.0
2014-Apr-08 16:30N 18°04' W 063°05'0 0.0
2014-Apr-08 15:07N 18°04' W 063°05'0 0.0
2014-Apr-08 13:12N 18°04' W 063°05'0 0.0
2014-Apr-08 12:12N 18°04' W 063°05'0 0.0
2014-Apr-08 11:25N 18°04' W 063°05'0 0.0
2014-Apr-08 10:32N 18°04' W 063°05'0 0.0
2014-Apr-08 09:20N 18°04' W 063°05'0 0.0
2014-Apr-08 08:18N 18°04' W 063°05'0 0.0
2014-Apr-08 07:16N 18°04' W 063°05'0 0.0
2014-Apr-08 06:28N 18°04' W 063°05'0 0.0
2014-Apr-08 05:26N 18°04' W 063°05'0 0.0
2014-Apr-08 04:33N 18°04' W 063°05'0 0.0
2014-Apr-08 03:33N 18°04' W 063°05'0 0.0
2014-Apr-08 02:22N 18°04' W 063°05'0 0.0
2014-Apr-08 01:08N 18°04' W 063°05'0 0.0
2014-Apr-08 00:14N 18°04' W 063°05'0 0.0
2014-Apr-07 23:03N 18°04' W 063°05'0 0.0
2014-Apr-07 22:13N 18°04' W 063°05'0 0.0
2014-Apr-07 21:22N 18°04' W 063°05'0 0.0
2014-Apr-07 20:23N 18°04' W 063°05'0 0.0
2014-Apr-07 19:33N 18°04' W 063°05'0 0.0
2014-Apr-07 16:26N 18°04' W 063°05'0 0.0
2014-Apr-07 15:23N 18°04' W 063°05'0 0.0
2014-Apr-07 14:21N 18°04' W 063°05'0 0.0
2014-Apr-07 13:34N 18°04' W 063°05'0 0.0
2014-Apr-07 12:31N 18°04' W 063°05'0 0.0
2014-Apr-07 11:17N 18°04' W 063°05'0 0.0
2014-Apr-07 10:30N 18°04' W 063°05'0 0.0
2014-Apr-07 09:27N 18°04' W 063°05'0 0.0
2014-Apr-07 08:22N 18°04' W 063°05'0 0.0
2014-Apr-07 07:32N 18°04' W 063°05'0 0.0
2014-Apr-07 06:21N 18°04' W 063°05'0 0.0
2014-Apr-07 05:33N 18°04' W 063°05'0 0.0
2014-Apr-07 04:31N 18°04' W 063°05'0 0.0
2014-Apr-07 03:25N 18°04' W 063°05'0 0.0
2014-Apr-07 02:23N 18°04' W 063°05'0 0.0
2014-Apr-07 00:33N 18°04' W 063°05'0 0.0
2014-Apr-06 23:31N 18°04' W 063°05'0 0.0
2014-Apr-06 22:32N 18°04' W 063°05'0 0.0
2014-Apr-06 21:17N 18°04' W 063°05'0 0.0
2014-Apr-06 20:27N 18°04' W 063°05'0 0.0
2014-Apr-06 18:11N 18°04' W 063°05'0 0.0
2014-Apr-06 13:26N 18°04' W 063°05'0 0.0
2014-Apr-06 10:07N 18°04' W 063°05'0 0.0
2014-Apr-06 09:31N 18°04' W 063°05'0 0.0
2014-Apr-06 08:32N 18°04' W 063°05'0 0.0
2014-Apr-06 07:30N 18°04' W 063°05'0 0.0
2014-Apr-06 06:25N 18°04' W 063°05'0 0.0
2014-Apr-06 05:28N 18°04' W 063°05'0 0.0
2014-Apr-06 04:26N 18°04' W 063°05'0 0.0
2014-Apr-06 03:23N 18°04' W 063°05'0 0.0
2014-Apr-06 02:33N 18°04' W 063°05'0 0.0
2014-Apr-06 01:31N 18°04' W 063°05'0 0.0
2014-Apr-06 00:32N 18°04' W 063°05'0 0.0
2014-Apr-05 23:29N 18°04' W 063°05'0 0.0
2014-Apr-05 22:27N 18°04' W 063°05'0 0.0
2014-Apr-05 21:13N 18°04' W 063°05'0 0.0
2014-Apr-05 20:19N 18°04' W 063°05'0 0.0
2014-Apr-05 19:32N 18°04' W 063°05'0 0.0
2014-Apr-05 18:30N 18°04' W 063°05'0 0.0
2014-Apr-05 17:30N 18°04' W 063°05'0 0.0
2014-Apr-05 16:28N 18°04' W 063°05'0 0.0
2014-Apr-05 15:25N 18°04' W 063°05'0 0.0
2014-Apr-05 14:23N 18°04' W 063°05'0 0.0
2014-Apr-05 13:12N 18°04' W 063°05'0 0.0
2014-Apr-05 12:30N 18°04' W 063°05'0 0.0
2014-Apr-05 11:31N 18°04' W 063°05'0 0.0
2014-Apr-05 10:29N 18°04' W 063°05'0 0.0
2014-Apr-05 09:29N 18°04' W 063°05'0 0.0
2014-Apr-05 08:24N 18°04' W 063°05'0 0.0
2014-Apr-05 07:25N 18°04' W 063°05'0 0.0
2014-Apr-05 06:31N 18°04' W 063°05'0 0.0
2014-Apr-05 05:32N 18°04' W 063°05'  

Dump ship's entire track history

sailing weather and tide predictions

Sealyon — 2CGJ2 — position and weather